createdAt,value
2023-02-06T00:01:44.543Z,100374.78
2023-02-06T00:04:13.197Z,100375.72
2023-02-06T00:06:41.820Z,100360.56
2023-02-06T00:09:10.281Z,100366.75
2023-02-06T00:11:39.110Z,100371.69
2023-02-06T00:14:07.614Z,100375.38
2023-02-06T00:16:37.564Z,100378.47
2023-02-06T00:19:05.967Z,100374.34
2023-02-06T00:21:34.664Z,100379.34
2023-02-06T00:24:03.687Z,100387.50
2023-02-06T00:26:32.525Z,100380.03
2023-02-06T00:29:01.045Z,100376.31
2023-02-06T00:31:29.653Z,100383.03
2023-02-06T00:33:59.299Z,100392.22
2023-02-06T00:36:28.207Z,100384.97
2023-02-06T00:38:56.542Z,100389.34
2023-02-06T00:41:25.027Z,100374.44
2023-02-06T00:43:53.278Z,100382.16
2023-02-06T00:46:22.369Z,100382.69
2023-02-06T00:48:50.689Z,100380.81
2023-02-06T00:51:20.504Z,100365.97
2023-02-06T00:53:50.974Z,100372.28
2023-02-06T00:56:20.568Z,100367.97
2023-02-06T00:58:48.862Z,100366.34
2023-02-06T01:01:17.674Z,100360.47
2023-02-06T01:03:46.061Z,100355.09
2023-02-06T01:06:14.999Z,100344.19
2023-02-06T01:08:44.709Z,100338.31
2023-02-06T01:11:15.326Z,100343.00
2023-02-06T01:13:45.027Z,100347.22
2023-02-06T01:16:18.673Z,100340.91
2023-02-06T01:18:47.549Z,100342.41
2023-02-06T01:21:17.664Z,100350.53
2023-02-06T01:23:48.796Z,100347.91
2023-02-06T01:26:20.326Z,100342.38
2023-02-06T01:28:50.280Z,100339.59
2023-02-06T01:31:21.221Z,100338.59
2023-02-06T01:33:52.250Z,100332.59
2023-02-06T01:36:21.635Z,100333.53
2023-02-06T01:38:51.441Z,100341.59
2023-02-06T01:41:21.666Z,100341.59
2023-02-06T01:44:13.257Z,100336.13
2023-02-06T01:46:43.244Z,100336.22
2023-02-06T01:49:15.246Z,100332.13
2023-02-06T01:51:44.057Z,100326.38
2023-02-06T01:54:15.613Z,100323.22
2023-02-06T01:56:47.517Z,100316.59
2023-02-06T01:59:15.912Z,100317.44
2023-02-06T02:01:45.056Z,100320.56
2023-02-06T02:04:16.616Z,100310.94
2023-02-06T02:06:47.426Z,100311.50
2023-02-06T02:09:19.095Z,100307.59
2023-02-06T02:11:47.744Z,100297.81
2023-02-06T02:14:18.106Z,100290.38
2023-02-06T02:16:56.488Z,100291.63
2023-02-06T02:19:54.802Z,100282.41
2023-02-06T02:22:53.051Z,100275.69
2023-02-06T02:25:48.904Z,100290.44
2023-02-06T02:28:44.490Z,100293.50
2023-02-06T02:31:21.648Z,100290.22
2023-02-06T02:34:28.944Z,100278.94
2023-02-06T02:37:01.732Z,100278.72
2023-02-06T02:39:36.174Z,100283.72
2023-02-06T02:42:14.715Z,100278.88
2023-02-06T02:44:48.571Z,100272.81
2023-02-06T02:47:18.553Z,100286.31
2023-02-06T02:49:47.352Z,100286.28
2023-02-06T02:52:17.240Z,100278.09
2023-02-06T02:54:45.867Z,100279.50
2023-02-06T02:57:17.478Z,100276.69
2023-02-06T02:59:47.903Z,100272.00
2023-02-06T03:02:20.284Z,100275.94
2023-02-06T03:04:50.822Z,100280.06
2023-02-06T03:07:28.296Z,100278.84
2023-02-06T03:10:02.965Z,100278.09
2023-02-06T03:12:36.574Z,100273.22
2023-02-06T03:15:09.007Z,100279.75
2023-02-06T03:17:40.437Z,100281.13
2023-02-06T03:20:11.012Z,100284.59
2023-02-06T03:22:42.261Z,100280.09
2023-02-06T03:25:14.254Z,100275.38
2023-02-06T03:27:43.877Z,100284.06
2023-02-06T03:30:14.163Z,100276.41
2023-02-06T03:32:44.544Z,100274.41
2023-02-06T03:35:17.533Z,100287.38
2023-02-06T03:37:49.179Z,100274.34
2023-02-06T03:40:18.569Z,100274.59
2023-02-06T03:42:51.660Z,100274.00
2023-02-06T03:45:25.771Z,100274.84
2023-02-06T03:47:55.848Z,100273.94
2023-02-06T03:50:25.106Z,100267.69
2023-02-06T03:52:56.716Z,100266.59
2023-02-06T03:55:34.781Z,100273.84
2023-02-06T03:58:06.912Z,100273.34
2023-02-06T04:00:35.811Z,100271.84
2023-02-06T04:03:05.117Z,100274.69
2023-02-06T04:05:33.918Z,100277.28
2023-02-06T04:08:04.123Z,100272.81
2023-02-06T04:10:32.824Z,100280.81
2023-02-06T04:13:01.304Z,100280.66
2023-02-06T04:15:30.063Z,100280.59
2023-02-06T04:18:01.133Z,100284.06
2023-02-06T04:20:30.911Z,100288.91
2023-02-06T04:22:59.497Z,100290.88
2023-02-06T04:25:29.699Z,100283.13
2023-02-06T04:27:57.877Z,100283.44
2023-02-06T04:30:26.443Z,100281.22
2023-02-06T04:32:54.722Z,100275.41
2023-02-06T04:35:23.191Z,100279.78
2023-02-06T04:37:51.451Z,100287.97
2023-02-06T04:40:20.190Z,100282.53
2023-02-06T04:42:49.941Z,100286.50
2023-02-06T04:45:18.435Z,100275.41
2023-02-06T04:47:49.732Z,100273.22
2023-02-06T04:50:19.614Z,100278.97
2023-02-06T04:52:47.844Z,100283.78
2023-02-06T04:55:16.517Z,100282.94
2023-02-06T04:57:44.867Z,100290.75
2023-02-06T05:00:16.476Z,100297.59
2023-02-06T05:02:44.689Z,100300.50
2023-02-06T05:05:14.252Z,100287.59
2023-02-06T05:07:42.458Z,100282.00
2023-02-06T05:10:11.574Z,100289.44
2023-02-06T05:12:39.940Z,100284.97
2023-02-06T05:15:09.241Z,100293.94
2023-02-06T05:17:38.912Z,100295.53
2023-02-06T05:20:08.489Z,100285.69
2023-02-06T05:22:37.756Z,100290.50
2023-02-06T05:25:06.974Z,100287.16
2023-02-06T05:27:35.264Z,100287.81
2023-02-06T05:30:03.890Z,100284.69
2023-02-06T05:32:32.123Z,100287.13
2023-02-06T05:35:02.003Z,100285.72
2023-02-06T05:37:30.327Z,100288.00
2023-02-06T05:40:00.056Z,100286.66
2023-02-06T05:42:28.535Z,100286.69
2023-02-06T05:44:57.101Z,100295.06
2023-02-06T05:47:26.036Z,100292.16
2023-02-06T05:49:54.938Z,100278.59
2023-02-06T05:52:24.659Z,100285.03
2023-02-06T05:54:53.241Z,100283.81
2023-02-06T05:57:21.556Z,100285.97
2023-02-06T05:59:50.230Z,100295.06
2023-02-06T06:02:18.792Z,100286.97
2023-02-06T06:04:47.511Z,100292.59
2023-02-06T06:07:16.394Z,100291.75
2023-02-06T06:09:46.820Z,100295.66
2023-02-06T06:12:15.150Z,100294.66
2023-02-06T06:14:43.870Z,100304.25
2023-02-06T06:17:12.145Z,100305.03
2023-02-06T06:19:40.667Z,100294.50
2023-02-06T06:22:09.254Z,100295.13
2023-02-06T06:24:37.934Z,100291.66
2023-02-06T06:27:10.674Z,100298.44
2023-02-06T06:29:39.468Z,100296.88
2023-02-06T06:32:07.895Z,100303.66
2023-02-06T06:34:36.584Z,100300.59
2023-02-06T06:37:05.059Z,100296.38
2023-02-06T06:39:33.685Z,100303.66
2023-02-06T06:42:04.441Z,100310.03
2023-02-06T06:44:34.409Z,100310.00
2023-02-06T06:47:02.580Z,100307.09
2023-02-06T06:49:31.204Z,100296.25
2023-02-06T06:51:59.781Z,100301.69
2023-02-06T06:54:28.220Z,100306.78
2023-02-06T06:56:56.611Z,100300.97
2023-02-06T06:59:25.401Z,100300.72
2023-02-06T07:01:55.179Z,100291.34
2023-02-06T07:04:28.575Z,100297.06
2023-02-06T07:06:57.106Z,100301.19
2023-02-06T07:09:25.838Z,100297.19
2023-02-06T07:11:54.287Z,100304.28
2023-02-06T07:14:22.769Z,100302.41
2023-02-06T07:16:51.084Z,100301.91
2023-02-06T07:19:21.439Z,100314.72
2023-02-06T07:21:49.870Z,100316.72
2023-02-06T07:24:19.075Z,100307.75
2023-02-06T07:26:47.361Z,100300.22
2023-02-06T07:29:16.229Z,100308.66
2023-02-06T07:31:44.534Z,100298.34
2023-02-06T07:34:13.685Z,100296.00
2023-02-06T07:36:43.639Z,100304.59
2023-02-06T07:39:12.135Z,100299.31
2023-02-06T07:41:40.396Z,100293.22
2023-02-06T07:44:09.062Z,100305.94
2023-02-06T07:46:37.251Z,100302.53
2023-02-06T07:49:05.805Z,100309.97
2023-02-06T07:51:34.059Z,100306.69
2023-02-06T07:54:04.030Z,100301.06
2023-02-06T07:56:32.705Z,100297.34
2023-02-06T07:59:01.462Z,100302.53
2023-02-06T08:01:29.950Z,100297.88
2023-02-06T08:03:58.763Z,100295.19
2023-02-06T08:06:27.650Z,100288.94
2023-02-06T08:08:57.211Z,100294.84
2023-02-06T08:11:30.248Z,100295.88
2023-02-06T08:13:59.417Z,100298.19
2023-02-06T08:16:27.802Z,100299.94
2023-02-06T08:18:56.334Z,100294.69
2023-02-06T08:21:26.144Z,100288.22
2023-02-06T08:23:58.903Z,100296.50
2023-02-06T08:26:29.875Z,100288.13
2023-02-06T08:28:58.740Z,100287.06
2023-02-06T08:31:29.472Z,100287.69
2023-02-06T08:33:58.247Z,100276.75
2023-02-06T08:36:27.039Z,100288.72
2023-02-06T08:38:55.768Z,100289.50
2023-02-06T08:41:26.309Z,100298.38
2023-02-06T08:43:57.867Z,100300.44
2023-02-06T08:46:28.413Z,100298.03
2023-02-06T08:48:58.732Z,100302.38
2023-02-06T08:51:28.063Z,100293.81
2023-02-06T08:54:00.221Z,100302.69
2023-02-06T08:56:29.589Z,100301.34
2023-02-06T08:59:00.586Z,100302.22
2023-02-06T09:01:30.887Z,100305.09
2023-02-06T09:04:01.073Z,100310.22
2023-02-06T09:06:30.785Z,100301.69
2023-02-06T09:08:59.586Z,100305.47
2023-02-06T09:11:28.624Z,100297.69
2023-02-06T09:14:00.409Z,100301.88
2023-02-06T09:16:29.909Z,100312.16
2023-02-06T09:19:01.474Z,100306.59
2023-02-06T09:21:30.712Z,100307.25
2023-02-06T09:24:01.432Z,100304.06
2023-02-06T09:26:30.910Z,100301.91
2023-02-06T09:29:03.256Z,100306.91
2023-02-06T09:31:32.285Z,100307.84
2023-02-06T09:34:01.452Z,100306.59
2023-02-06T09:36:30.790Z,100308.50
2023-02-06T09:38:59.567Z,100308.16
2023-02-06T09:41:41.818Z,100311.06
2023-02-06T09:44:17.218Z,100311.19
2023-02-06T09:46:48.318Z,100312.16
2023-02-06T09:49:18.513Z,100313.25
2023-02-06T09:52:31.402Z,100312.25
2023-02-06T09:55:07.193Z,100311.72
2023-02-06T09:57:40.532Z,100306.84
2023-02-06T10:00:30.598Z,100303.25
2023-02-06T10:03:08.515Z,100295.44
2023-02-06T10:05:48.140Z,100289.94
2023-02-06T10:08:20.900Z,100288.56
2023-02-06T10:10:51.992Z,100289.19
2023-02-06T10:13:24.214Z,100290.25
2023-02-06T10:15:57.950Z,100294.78
2023-02-06T10:18:33.543Z,100282.03
2023-02-06T10:21:06.109Z,100281.41
2023-02-06T10:23:38.862Z,100283.94
2023-02-06T10:26:12.475Z,100277.53
2023-02-06T10:28:41.821Z,100281.72
2023-02-06T10:31:26.822Z,100280.75
2023-02-06T10:34:05.828Z,100280.88
2023-02-06T10:36:46.784Z,100282.53
2023-02-06T10:39:40.385Z,100281.16
2023-02-06T10:42:13.730Z,100284.34
2023-02-06T10:44:51.042Z,100275.97
2023-02-06T10:47:30.473Z,100265.03
2023-02-06T10:50:03.301Z,100267.00
2023-02-06T10:52:34.665Z,100261.09
2023-02-06T10:55:06.653Z,100263.72
2023-02-06T10:57:35.629Z,100254.78
2023-02-06T11:00:05.963Z,100255.31
2023-02-06T11:02:44.506Z,100253.13
2023-02-06T11:05:17.533Z,100258.09
2023-02-06T11:07:47.903Z,100251.88
2023-02-06T11:10:18.812Z,100253.59
2023-02-06T11:12:51.452Z,100241.13
2023-02-06T11:15:23.852Z,100244.28
2023-02-06T11:17:55.062Z,100243.13
2023-02-06T11:20:25.378Z,100251.16
2023-02-06T11:22:54.033Z,100247.56
2023-02-06T11:25:27.414Z,100245.38
2023-02-06T11:27:59.234Z,100242.19
2023-02-06T11:30:35.005Z,100236.78
2023-02-06T11:33:07.625Z,100236.84
2023-02-06T11:35:39.713Z,100254.13
2023-02-06T11:38:16.220Z,100249.25
2023-02-06T11:40:45.170Z,100245.34
2023-02-06T11:43:18.972Z,100242.66
2023-02-06T11:45:48.699Z,100251.63
2023-02-06T11:48:40.730Z,100248.50
2023-02-06T11:51:10.497Z,100245.16
2023-02-06T11:53:39.601Z,100255.91
2023-02-06T11:56:19.063Z,100240.34
2023-02-06T11:58:48.457Z,100244.03
2023-02-06T12:01:20.482Z,100241.88
2023-02-06T12:03:57.777Z,100246.31
2023-02-06T12:06:30.742Z,100244.78
2023-02-06T12:09:00.598Z,100237.59
2023-02-06T12:11:33.401Z,100233.28
2023-02-06T12:14:06.270Z,100232.63
2023-02-06T12:16:37.995Z,100230.78
2023-02-06T12:19:12.613Z,100236.91
2023-02-06T12:21:44.186Z,100238.03
2023-02-06T12:24:22.301Z,100241.38
2023-02-06T12:26:52.263Z,100242.66
2023-02-06T12:29:24.828Z,100249.75
2023-02-06T12:32:00.022Z,100251.97
2023-02-06T12:34:41.654Z,100248.91
2023-02-06T12:37:14.519Z,100254.56
2023-02-06T12:39:45.506Z,100252.66
2023-02-06T12:42:36.371Z,100245.50
2023-02-06T12:45:09.417Z,100251.78
2023-02-06T12:47:42.711Z,100263.84
2023-02-06T12:50:16.805Z,100255.47
2023-02-06T12:52:49.141Z,100253.88
2023-02-06T12:55:22.587Z,100266.03
2023-02-06T12:57:51.090Z,100257.94
2023-02-06T13:00:40.884Z,100264.69
2023-02-06T13:03:28.445Z,100257.72
2023-02-06T13:06:04.657Z,100252.75
2023-02-06T13:08:41.568Z,100261.22
2023-02-06T13:11:19.161Z,100257.59
2023-02-06T13:13:47.642Z,100266.81
2023-02-06T13:16:16.424Z,100273.25
2023-02-06T13:18:54.698Z,100270.38
2023-02-06T13:21:28.785Z,100274.19
2023-02-06T13:24:18.105Z,100269.44
2023-02-06T13:27:19.994Z,100274.31
2023-02-06T13:29:48.380Z,100267.56
2023-02-06T13:32:41.073Z,100276.50
2023-02-06T13:35:24.354Z,100272.03
2023-02-06T13:38:14.714Z,100276.28
2023-02-06T13:40:43.762Z,100282.00
2023-02-06T13:43:18.784Z,100280.41
2023-02-06T13:45:54.124Z,100276.50
2023-02-06T13:48:49.701Z,100280.03
2023-02-06T13:51:46.944Z,100280.16
2023-02-06T13:54:49.139Z,100281.16
2023-02-06T13:57:31.191Z,100287.97
2023-02-06T14:00:03.373Z,100285.72
2023-02-06T14:02:38.130Z,100280.31
2023-02-06T14:05:12.467Z,100286.69
2023-02-06T14:08:10.446Z,100284.28
2023-02-06T14:11:28.736Z,100292.25
2023-02-06T14:14:15.178Z,100286.59
2023-02-06T14:16:49.803Z,100292.16
2023-02-06T14:19:27.700Z,100300.41
2023-02-06T14:22:03.433Z,100288.38
2023-02-06T14:24:51.844Z,100296.56
2023-02-06T14:27:31.199Z,100308.13
2023-02-06T14:30:07.556Z,100302.09
2023-02-06T14:32:44.341Z,100299.03
2023-02-06T14:35:33.041Z,100303.75
2023-02-06T14:38:28.809Z,100311.19
2023-02-06T14:41:00.745Z,100311.22
2023-02-06T14:43:33.105Z,100319.53
2023-02-06T14:46:08.068Z,100316.78
2023-02-06T14:48:41.849Z,100327.28
2023-02-06T14:51:20.787Z,100321.25
2023-02-06T14:53:53.862Z,100318.25
2023-02-06T14:56:28.220Z,100313.13
2023-02-06T14:58:59.004Z,100322.72
2023-02-06T15:01:30.274Z,100318.03
2023-02-06T15:04:11.067Z,100326.88
2023-02-06T15:06:40.990Z,100314.13
2023-02-06T15:09:10.239Z,100314.66
2023-02-06T15:11:38.597Z,100314.91
2023-02-06T15:14:27.687Z,100317.28
2023-02-06T15:17:00.966Z,100318.75
2023-02-06T15:19:31.339Z,100315.63
2023-02-06T15:22:02.255Z,100311.25
2023-02-06T15:24:40.564Z,100323.63
2023-02-06T15:27:14.007Z,100320.38
2023-02-06T15:29:48.288Z,100321.03
2023-02-06T15:32:24.277Z,100330.81
2023-02-06T15:34:53.122Z,100330.31
2023-02-06T15:37:23.802Z,100339.41
2023-02-06T15:39:53.420Z,100334.06
2023-02-06T15:42:22.834Z,100343.22
2023-02-06T15:44:53.606Z,100345.28
2023-02-06T15:47:22.186Z,100337.69
2023-02-06T15:49:53.295Z,100349.13
2023-02-06T15:52:35.225Z,100348.28
2023-02-06T15:55:04.954Z,100350.94
2023-02-06T15:57:35.550Z,100349.69
2023-02-06T16:00:09.823Z,100355.31
2023-02-06T16:02:39.220Z,100352.84
2023-02-06T16:05:09.213Z,100360.66
2023-02-06T16:07:38.773Z,100348.47
2023-02-06T16:10:21.665Z,100346.03
2023-02-06T16:12:50.960Z,100346.03
2023-02-06T16:15:30.316Z,100353.00
2023-02-06T16:18:00.160Z,100346.97
2023-02-06T16:20:39.872Z,100350.75
2023-02-06T16:23:29.886Z,100358.31
2023-02-06T16:26:04.988Z,100355.91
2023-02-06T16:28:33.298Z,100365.69
2023-02-06T16:31:05.503Z,100360.69
2023-02-06T16:33:38.440Z,100355.81
2023-02-06T16:36:07.858Z,100356.31
2023-02-06T16:38:36.148Z,100370.22
2023-02-06T16:41:04.984Z,100366.78
2023-02-06T16:43:33.456Z,100373.69
2023-02-06T16:46:03.350Z,100380.53
2023-02-06T16:48:31.750Z,100378.44
2023-02-06T16:51:00.588Z,100379.31
2023-02-06T16:53:29.492Z,100379.00
2023-02-06T16:55:58.037Z,100386.53
2023-02-06T16:58:28.574Z,100393.97
2023-02-06T17:00:57.332Z,100391.97
2023-02-06T17:03:27.413Z,100400.91
2023-02-06T17:05:55.975Z,100395.59
2023-02-06T17:08:25.684Z,100406.22
2023-02-06T17:10:54.386Z,100402.66
2023-02-06T17:13:24.833Z,100400.31
2023-02-06T17:15:53.682Z,100407.50
2023-02-06T17:18:23.749Z,100404.97
2023-02-06T17:20:56.330Z,100401.38
2023-02-06T17:23:25.612Z,100402.97
2023-02-06T17:25:54.225Z,100400.81
2023-02-06T17:28:22.920Z,100404.66
2023-02-06T17:30:52.193Z,100394.84
2023-02-06T17:33:21.092Z,100403.97
2023-02-06T17:35:50.123Z,100403.59
2023-02-06T17:38:20.173Z,100396.28
2023-02-06T17:40:48.877Z,100404.13
2023-02-06T17:43:17.414Z,100405.50
2023-02-06T17:45:46.140Z,100402.88
2023-02-06T17:48:14.740Z,100406.59
2023-02-06T17:50:43.819Z,100405.72
2023-02-06T17:53:14.200Z,100411.13
2023-02-06T17:55:45.299Z,100401.75
2023-02-06T17:58:13.560Z,100402.69
2023-02-06T18:00:42.157Z,100396.38
2023-02-06T18:03:11.541Z,100409.59
2023-02-06T18:05:40.335Z,100410.63
2023-02-06T18:08:08.782Z,100410.06
2023-02-06T18:10:40.712Z,100411.88
2023-02-06T18:13:10.281Z,100418.44
2023-02-06T18:15:38.946Z,100418.53
2023-02-06T18:18:07.377Z,100426.44
2023-02-06T18:20:36.711Z,100429.84
2023-02-06T18:23:05.292Z,100427.22
2023-02-06T18:25:34.193Z,100431.19
2023-02-06T18:28:02.878Z,100433.25
2023-02-06T18:30:34.285Z,100424.00
2023-02-06T18:33:03.210Z,100421.69
2023-02-06T18:35:32.213Z,100418.09
2023-02-06T18:38:00.735Z,100423.28
2023-02-06T18:40:29.544Z,100422.75
2023-02-06T18:42:57.793Z,100430.03
2023-02-06T18:45:31.277Z,100425.00
2023-02-06T18:48:01.423Z,100432.31
2023-02-06T18:50:31.774Z,100432.16
2023-02-06T18:53:00.129Z,100433.81
2023-02-06T18:55:28.898Z,100423.91
2023-02-06T18:57:57.215Z,100431.72
2023-02-06T19:00:25.924Z,100422.00
2023-02-06T19:02:54.232Z,100423.91
2023-02-06T19:05:24.710Z,100413.66
2023-02-06T19:07:54.213Z,100423.69
2023-02-06T19:10:23.253Z,100413.41
2023-02-06T19:12:51.617Z,100410.88
2023-02-06T19:15:20.645Z,100416.84
2023-02-06T19:17:50.437Z,100417.47
2023-02-06T19:20:19.788Z,100413.16
2023-02-06T19:22:49.507Z,100412.88
2023-02-06T19:25:19.379Z,100419.31
2023-02-06T19:27:47.783Z,100423.00
2023-02-06T19:30:16.566Z,100425.38
2023-02-06T19:32:46.187Z,100431.50
2023-02-06T19:35:15.574Z,100434.28
2023-02-06T19:37:43.753Z,100440.09
2023-02-06T19:40:13.787Z,100443.84
2023-02-06T19:42:42.190Z,100428.03
2023-02-06T19:45:11.014Z,100437.25
2023-02-06T19:47:39.458Z,100441.78
2023-02-06T19:50:08.745Z,100431.00
2023-02-06T19:52:37.033Z,100437.28
2023-02-06T19:55:05.826Z,100433.78
2023-02-06T19:57:35.548Z,100434.97
2023-02-06T20:00:04.844Z,100444.94
2023-02-06T20:02:33.228Z,100445.91
2023-02-06T20:05:02.734Z,100436.31
2023-02-06T20:07:31.830Z,100443.50
2023-02-06T20:10:00.602Z,100433.34
2023-02-06T20:12:29.243Z,100441.22
2023-02-06T20:15:00.584Z,100438.03
2023-02-06T20:17:29.270Z,100448.16
2023-02-06T20:20:00.044Z,100447.94
2023-02-06T20:22:28.921Z,100454.22
2023-02-06T20:24:57.486Z,100465.28
2023-02-06T20:27:26.589Z,100465.00
2023-02-06T20:29:55.205Z,100473.03
2023-02-06T20:32:25.240Z,100475.38
2023-02-06T20:34:53.805Z,100482.06
2023-02-06T20:37:22.544Z,100490.34
2023-02-06T20:39:51.078Z,100487.81
2023-02-06T20:42:22.353Z,100483.44
2023-02-06T20:44:51.783Z,100491.06
2023-02-06T20:47:20.093Z,100501.22
2023-02-06T20:49:50.482Z,100498.09
2023-02-06T20:52:19.234Z,100494.16
2023-02-06T20:54:47.823Z,100505.88
2023-02-06T20:57:16.437Z,100500.78
2023-02-06T20:59:45.066Z,100504.75
2023-02-06T21:02:13.507Z,100511.50
2023-02-06T21:04:42.386Z,100519.53
2023-02-06T21:07:12.396Z,100526.16
2023-02-06T21:09:44.616Z,100517.41
2023-02-06T21:12:12.952Z,100512.03
2023-02-06T21:14:41.933Z,100512.88
2023-02-06T21:17:10.565Z,100522.03
2023-02-06T21:19:39.298Z,100515.44
2023-02-06T21:22:07.489Z,100519.09
2023-02-06T21:24:37.776Z,100524.47
2023-02-06T21:27:06.225Z,100522.75
2023-02-06T21:29:35.077Z,100532.91
2023-02-06T21:32:13.375Z,100535.44
2023-02-06T21:34:43.070Z,100536.69
2023-02-06T21:37:11.899Z,100546.00
2023-02-06T21:39:42.204Z,100540.41
2023-02-06T21:42:11.559Z,100547.41
2023-02-06T21:44:40.102Z,100548.81
2023-02-06T21:47:09.936Z,100550.22
2023-02-06T21:49:38.799Z,100558.38
2023-02-06T21:52:07.416Z,100559.09
2023-02-06T21:54:36.186Z,100562.47
2023-02-06T21:57:06.077Z,100560.69
2023-02-06T21:59:38.256Z,100575.09
2023-02-06T22:02:06.612Z,100578.75
2023-02-06T22:04:35.363Z,100583.09
2023-02-06T22:07:03.697Z,100575.94
2023-02-06T22:09:32.292Z,100582.97
2023-02-06T22:12:01.740Z,100586.75
2023-02-06T22:14:31.661Z,100591.78
2023-02-06T22:17:00.103Z,100598.59
2023-02-06T22:19:29.375Z,100605.91
2023-02-06T22:21:57.786Z,100608.59
2023-02-06T22:24:26.582Z,100606.47
2023-02-06T22:26:54.919Z,100607.44
2023-02-06T22:29:23.409Z,100613.91
2023-02-06T22:31:53.021Z,100606.38
2023-02-06T22:34:22.230Z,100596.03
2023-02-06T22:36:51.767Z,100600.81
2023-02-06T22:39:20.876Z,100601.63
2023-02-06T22:41:52.558Z,100594.09
2023-02-06T22:44:22.096Z,100585.75
2023-02-06T22:46:53.971Z,100591.53
2023-02-06T22:49:24.633Z,100581.09
2023-02-06T22:51:53.524Z,100578.75
2023-02-06T22:54:22.164Z,100586.91
2023-02-06T22:56:50.648Z,100582.97
2023-02-06T22:59:20.645Z,100581.94
2023-02-06T23:01:50.872Z,100579.97
2023-02-06T23:04:22.756Z,100577.91
2023-02-06T23:06:52.137Z,100565.78
2023-02-06T23:09:22.500Z,100566.31
2023-02-06T23:11:52.075Z,100559.72
2023-02-06T23:14:21.042Z,100566.94
2023-02-06T23:16:49.944Z,100564.97
2023-02-06T23:19:21.352Z,100554.00
2023-02-06T23:21:51.452Z,100560.78
2023-02-06T23:24:20.469Z,100551.88
2023-02-06T23:26:50.665Z,100552.75
2023-02-06T23:29:20.459Z,100547.94
2023-02-06T23:31:49.558Z,100564.25
2023-02-06T23:34:20.513Z,100549.63
2023-02-06T23:36:49.127Z,100540.03
2023-02-06T23:39:17.836Z,100552.47
2023-02-06T23:41:46.257Z,100563.31
2023-02-06T23:44:14.818Z,100544.16
2023-02-06T23:46:43.335Z,100545.00
2023-02-06T23:49:12.232Z,100540.63
2023-02-06T23:51:42.246Z,100544.13
2023-02-06T23:54:11.313Z,100549.38
2023-02-06T23:56:39.926Z,100562.56
2023-02-06T23:59:08.647Z,100548.19
